sensor_id;sensor_type;location;lat;lon;timestamp;P1;durP1;ratioP1;P2;durP2;ratioP2
57295;SDS011;43146;50.976;18.216;2023-01-23T00:02:18;64.60;;;18.70;;
57295;SDS011;43146;50.976;18.216;2023-01-23T00:04:45;56.60;;;18.30;;
57295;SDS011;43146;50.976;18.216;2023-01-23T00:07:10;67.00;;;19.60;;
57295;SDS011;43146;50.976;18.216;2023-01-23T00:09:36;62.00;;;16.00;;
57295;SDS011;43146;50.976;18.216;2023-01-23T00:12:03;46.20;;;11.90;;
57295;SDS011;43146;50.976;18.216;2023-01-23T00:14:29;60.20;;;18.80;;
57295;SDS011;43146;50.976;18.216;2023-01-23T00:16:55;78.90;;;22.50;;
57295;SDS011;43146;50.976;18.216;2023-01-23T00:19:20;69.50;;;21.20;;
57295;SDS011;43146;50.976;18.216;2023-01-23T00:21:46;58.40;;;21.80;;
57295;SDS011;43146;50.976;18.216;2023-01-23T00:24:11;73.10;;;23.20;;
57295;SDS011;43146;50.976;18.216;2023-01-23T00:26:37;59.50;;;19.00;;
57295;SDS011;43146;50.976;18.216;2023-01-23T00:29:03;61.80;;;22.50;;
57295;SDS011;43146;50.976;18.216;2023-01-23T00:31:30;53.80;;;16.30;;
57295;SDS011;43146;50.976;18.216;2023-01-23T00:33:59;64.70;;;17.10;;
57295;SDS011;43146;50.976;18.216;2023-01-23T00:36:28;72.00;;;20.70;;
57295;SDS011;43146;50.976;18.216;2023-01-23T00:38:56;90.90;;;30.40;;
57295;SDS011;43146;50.976;18.216;2023-01-23T00:41:22;40.60;;;12.20;;
57295;SDS011;43146;50.976;18.216;2023-01-23T00:43:48;47.20;;;15.40;;
57295;SDS011;43146;50.976;18.216;2023-01-23T00:46:16;35.00;;;12.00;;
57295;SDS011;43146;50.976;18.216;2023-01-23T00:48:43;48.10;;;16.70;;
57295;SDS011;43146;50.976;18.216;2023-01-23T00:51:08;72.80;;;19.30;;
57295;SDS011;43146;50.976;18.216;2023-01-23T00:53:34;73.40;;;23.60;;
57295;SDS011;43146;50.976;18.216;2023-01-23T00:56:00;67.00;;;20.80;;
57295;SDS011;43146;50.976;18.216;2023-01-23T00:58:26;69.50;;;23.20;;
57295;SDS011;43146;50.976;18.216;2023-01-23T01:00:51;63.20;;;20.90;;
57295;SDS011;43146;50.976;18.216;2023-01-23T01:03:17;58.70;;;18.80;;
57295;SDS011;43146;50.976;18.216;2023-01-23T01:05:44;28.40;;;10.60;;
57295;SDS011;43146;50.976;18.216;2023-01-23T01:08:11;89.20;;;35.00;;
57295;SDS011;43146;50.976;18.216;2023-01-23T01:10:38;52.50;;;17.20;;
57295;SDS011;43146;50.976;18.216;2023-01-23T01:13:05;44.80;;;14.10;;
57295;SDS011;43146;50.976;18.216;2023-01-23T01:15:30;58.90;;;19.20;;
57295;SDS011;43146;50.976;18.216;2023-01-23T01:17:57;63.70;;;19.40;;
57295;SDS011;43146;50.976;18.216;2023-01-23T01:20:23;69.40;;;23.00;;
57295;SDS011;43146;50.976;18.216;2023-01-23T01:22:51;72.80;;;21.80;;
57295;SDS011;43146;50.976;18.216;2023-01-23T01:25:17;76.20;;;24.90;;
57295;SDS011;43146;50.976;18.216;2023-01-23T01:27:43;76.60;;;24.80;;
57295;SDS011;43146;50.976;18.216;2023-01-23T01:30:09;97.20;;;25.00;;
57295;SDS011;43146;50.976;18.216;2023-01-23T01:32:36;83.50;;;24.90;;
57295;SDS011;43146;50.976;18.216;2023-01-23T01:35:03;86.90;;;23.30;;
57295;SDS011;43146;50.976;18.216;2023-01-23T01:37:40;75.40;;;22.80;;
57295;SDS011;43146;50.976;18.216;2023-01-23T01:40:07;75.40;;;23.50;;
57295;SDS011;43146;50.976;18.216;2023-01-23T01:42:55;74.30;;;24.80;;
57295;SDS011;43146;50.976;18.216;2023-01-23T01:48:31;64.50;;;20.20;;
57295;SDS011;43146;50.976;18.216;2023-01-23T01:51:00;61.00;;;21.30;;
57295;SDS011;43146;50.976;18.216;2023-01-23T01:53:30;70.20;;;22.20;;
57295;SDS011;43146;50.976;18.216;2023-01-23T01:55:57;67.60;;;20.80;;
57295;SDS011;43146;50.976;18.216;2023-01-23T01:58:23;94.90;;;28.10;;
57295;SDS011;43146;50.976;18.216;2023-01-23T02:00:49;79.30;;;25.40;;
57295;SDS011;43146;50.976;18.216;2023-01-23T02:03:15;85.00;;;26.50;;
57295;SDS011;43146;50.976;18.216;2023-01-23T02:05:44;105.60;;;31.90;;
57295;SDS011;43146;50.976;18.216;2023-01-23T02:08:32;94.50;;;29.20;;
57295;SDS011;43146;50.976;18.216;2023-01-23T02:11:02;86.30;;;24.70;;
57295;SDS011;43146;50.976;18.216;2023-01-23T02:13:31;43.70;;;15.20;;
57295;SDS011;43146;50.976;18.216;2023-01-23T02:16:04;53.40;;;17.10;;
57295;SDS011;43146;50.976;18.216;2023-01-23T02:18:31;41.50;;;13.10;;
57295;SDS011;43146;50.976;18.216;2023-01-23T02:21:00;41.50;;;14.30;;
57295;SDS011;43146;50.976;18.216;2023-01-23T02:23:40;51.60;;;17.50;;
57295;SDS011;43146;50.976;18.216;2023-01-23T02:26:44;52.40;;;16.30;;
57295;SDS011;43146;50.976;18.216;2023-01-23T02:29:11;57.20;;;16.80;;
57295;SDS011;43146;50.976;18.216;2023-01-23T02:31:38;51.10;;;15.90;;
57295;SDS011;43146;50.976;18.216;2023-01-23T02:34:10;45.50;;;15.00;;
57295;SDS011;43146;50.976;18.216;2023-01-23T02:36:37;39.40;;;13.10;;
57295;SDS011;43146;50.976;18.216;2023-01-23T02:39:10;34.60;;;12.80;;
57295;SDS011;43146;50.976;18.216;2023-01-23T02:41:39;29.40;;;12.10;;
57295;SDS011;43146;50.976;18.216;2023-01-23T02:44:16;60.40;;;20.50;;
57295;SDS011;43146;50.976;18.216;2023-01-23T02:46:44;34.00;;;10.50;;
57295;SDS011;43146;50.976;18.216;2023-01-23T02:49:10;49.20;;;20.30;;
57295;SDS011;43146;50.976;18.216;2023-01-23T02:51:36;37.30;;;13.40;;
57295;SDS011;43146;50.976;18.216;2023-01-23T02:54:01;41.70;;;14.10;;
57295;SDS011;43146;50.976;18.216;2023-01-23T02:56:27;40.30;;;15.30;;
57295;SDS011;43146;50.976;18.216;2023-01-23T02:58:53;46.70;;;16.00;;
57295;SDS011;43146;50.976;18.216;2023-01-23T03:01:38;41.30;;;15.50;;
57295;SDS011;43146;50.976;18.216;2023-01-23T03:04:04;58.50;;;23.40;;
57295;SDS011;43146;50.976;18.216;2023-01-23T03:06:34;41.50;;;16.60;;
57295;SDS011;43146;50.976;18.216;2023-01-23T03:09:05;47.40;;;16.50;;
57295;SDS011;43146;50.976;18.216;2023-01-23T03:11:34;38.90;;;15.40;;
57295;SDS011;43146;50.976;18.216;2023-01-23T03:14:02;43.10;;;15.70;;
57295;SDS011;43146;50.976;18.216;2023-01-23T03:16:28;36.60;;;12.80;;
57295;SDS011;43146;50.976;18.216;2023-01-23T03:18:54;47.70;;;15.10;;
57295;SDS011;43146;50.976;18.216;2023-01-23T03:21:21;24.60;;;10.20;;
57295;SDS011;43146;50.976;18.216;2023-01-23T03:23:47;32.50;;;11.40;;
57295;SDS011;43146;50.976;18.216;2023-01-23T03:26:13;37.60;;;11.60;;
57295;SDS011;43146;50.976;18.216;2023-01-23T03:28:39;32.60;;;13.60;;
57295;SDS011;43146;50.976;18.216;2023-01-23T03:31:24;39.20;;;13.70;;
57295;SDS011;43146;50.976;18.216;2023-01-23T03:33:50;45.10;;;13.90;;
57295;SDS011;43146;50.976;18.216;2023-01-23T03:36:17;41.60;;;13.60;;
57295;SDS011;43146;50.976;18.216;2023-01-23T03:38:43;46.90;;;14.60;;
57295;SDS011;43146;50.976;18.216;2023-01-23T03:41:28;36.10;;;12.70;;
57295;SDS011;43146;50.976;18.216;2023-01-23T03:43:54;39.40;;;15.00;;
57295;SDS011;43146;50.976;18.216;2023-01-23T03:46:21;49.00;;;14.20;;
57295;SDS011;43146;50.976;18.216;2023-01-23T03:48:47;39.80;;;13.00;;
57295;SDS011;43146;50.976;18.216;2023-01-23T03:51:13;42.60;;;17.20;;
57295;SDS011;43146;50.976;18.216;2023-01-23T03:53:39;48.60;;;16.00;;
57295;SDS011;43146;50.976;18.216;2023-01-23T03:56:04;46.30;;;13.20;;
57295;SDS011;43146;50.976;18.216;2023-01-23T03:58:31;65.90;;;20.70;;
57295;SDS011;43146;50.976;18.216;2023-01-23T04:00:57;49.40;;;15.40;;
57295;SDS011;43146;50.976;18.216;2023-01-23T04:03:23;45.10;;;14.60;;
57295;SDS011;43146;50.976;18.216;2023-01-23T04:05:53;56.40;;;19.20;;
57295;SDS011;43146;50.976;18.216;2023-01-23T04:08:20;43.50;;;14.70;;
57295;SDS011;43146;50.976;18.216;2023-01-23T04:10:47;47.30;;;15.10;;
57295;SDS011;43146;50.976;18.216;2023-01-23T04:13:13;40.20;;;13.40;;
57295;SDS011;43146;50.976;18.216;2023-01-23T04:15:39;42.70;;;14.20;;
57295;SDS011;43146;50.976;18.216;2023-01-23T04:18:04;59.40;;;18.60;;
57295;SDS011;43146;50.976;18.216;2023-01-23T04:20:30;44.80;;;13.60;;
57295;SDS011;43146;50.976;18.216;2023-01-23T04:22:56;47.10;;;17.20;;
57295;SDS011;43146;50.976;18.216;2023-01-23T04:25:21;56.10;;;16.20;;
57295;SDS011;43146;50.976;18.216;2023-01-23T04:27:47;46.50;;;12.20;;
57295;SDS011;43146;50.976;18.216;2023-01-23T04:30:12;37.10;;;13.50;;
57295;SDS011;43146;50.976;18.216;2023-01-23T04:32:38;59.50;;;19.00;;
57295;SDS011;43146;50.976;18.216;2023-01-23T04:35:04;48.50;;;15.50;;
57295;SDS011;43146;50.976;18.216;2023-01-23T04:37:30;40.80;;;15.50;;
57295;SDS011;43146;50.976;18.216;2023-01-23T04:39:56;71.10;;;22.50;;
57295;SDS011;43146;50.976;18.216;2023-01-23T04:42:22;66.40;;;21.00;;
57295;SDS011;43146;50.976;18.216;2023-01-23T04:44:48;56.30;;;20.30;;
57295;SDS011;43146;50.976;18.216;2023-01-23T04:47:14;66.50;;;21.60;;
57295;SDS011;43146;50.976;18.216;2023-01-23T04:49:39;43.20;;;15.50;;
57295;SDS011;43146;50.976;18.216;2023-01-23T04:52:06;51.30;;;18.90;;
57295;SDS011;43146;50.976;18.216;2023-01-23T04:54:32;48.90;;;14.00;;
57295;SDS011;43146;50.976;18.216;2023-01-23T04:56:58;50.20;;;14.90;;
57295;SDS011;43146;50.976;18.216;2023-01-23T04:59:24;51.00;;;14.50;;
57295;SDS011;43146;50.976;18.216;2023-01-23T05:01:50;24.80;;;9.10;;
57295;SDS011;43146;50.976;18.216;2023-01-23T05:04:15;40.90;;;13.70;;
57295;SDS011;43146;50.976;18.216;2023-01-23T05:06:41;66.50;;;21.70;;
57295;SDS011;43146;50.976;18.216;2023-01-23T05:09:07;71.40;;;19.10;;
57295;SDS011;43146;50.976;18.216;2023-01-23T05:11:32;46.10;;;14.10;;
57295;SDS011;43146;50.976;18.216;2023-01-23T05:13:58;65.50;;;18.90;;
57295;SDS011;43146;50.976;18.216;2023-01-23T05:16:24;56.40;;;15.00;;
57295;SDS011;43146;50.976;18.216;2023-01-23T05:18:50;43.30;;;13.50;;
57295;SDS011;43146;50.976;18.216;2023-01-23T05:21:15;68.10;;;20.10;;
57295;SDS011;43146;50.976;18.216;2023-01-23T05:23:41;48.60;;;14.70;;
57295;SDS011;43146;50.976;18.216;2023-01-23T05:26:07;68.30;;;18.80;;
57295;SDS011;43146;50.976;18.216;2023-01-23T05:28:32;42.70;;;13.70;;
57295;SDS011;43146;50.976;18.216;2023-01-23T05:30:58;47.00;;;16.20;;
57295;SDS011;43146;50.976;18.216;2023-01-23T05:33:24;39.70;;;12.90;;
57295;SDS011;43146;50.976;18.216;2023-01-23T05:35:49;82.90;;;23.50;;
57295;SDS011;43146;50.976;18.216;2023-01-23T05:38:15;70.80;;;22.90;;
57295;SDS011;43146;50.976;18.216;2023-01-23T05:40:41;75.50;;;18.60;;
57295;SDS011;43146;50.976;18.216;2023-01-23T05:43:06;86.10;;;24.50;;
57295;SDS011;43146;50.976;18.216;2023-01-23T05:45:34;46.30;;;13.70;;
57295;SDS011;43146;50.976;18.216;2023-01-23T05:48:00;53.70;;;18.00;;
57295;SDS011;43146;50.976;18.216;2023-01-23T05:50:25;78.30;;;23.20;;
57295;SDS011;43146;50.976;18.216;2023-01-23T05:52:51;39.50;;;13.20;;
57295;SDS011;43146;50.976;18.216;2023-01-23T05:55:17;73.10;;;20.70;;
57295;SDS011;43146;50.976;18.216;2023-01-23T05:57:43;74.60;;;24.80;;
57295;SDS011;43146;50.976;18.216;2023-01-23T06:00:10;72.60;;;20.60;;
57295;SDS011;43146;50.976;18.216;2023-01-23T06:02:38;52.70;;;16.40;;
57295;SDS011;43146;50.976;18.216;2023-01-23T06:05:04;81.80;;;22.90;;
57295;SDS011;43146;50.976;18.216;2023-01-23T06:07:30;69.60;;;21.70;;
57295;SDS011;43146;50.976;18.216;2023-01-23T06:09:56;98.40;;;26.70;;
57295;SDS011;43146;50.976;18.216;2023-01-23T06:12:22;112.90;;;29.80;;
57295;SDS011;43146;50.976;18.216;2023-01-23T06:14:47;135.40;;;35.40;;
57295;SDS011;43146;50.976;18.216;2023-01-23T06:17:13;123.10;;;31.10;;
57295;SDS011;43146;50.976;18.216;2023-01-23T06:19:39;146.30;;;34.80;;
57295;SDS011;43146;50.976;18.216;2023-01-23T06:22:05;80.30;;;22.90;;
57295;SDS011;43146;50.976;18.216;2023-01-23T06:24:30;60.60;;;15.60;;
57295;SDS011;43146;50.976;18.216;2023-01-23T06:26:56;79.80;;;22.40;;
57295;SDS011;43146;50.976;18.216;2023-01-23T06:29:22;63.80;;;20.50;;
57295;SDS011;43146;50.976;18.216;2023-01-23T06:31:48;71.90;;;18.80;;
57295;SDS011;43146;50.976;18.216;2023-01-23T06:34:13;63.70;;;22.30;;
57295;SDS011;43146;50.976;18.216;2023-01-23T06:36:39;120.00;;;31.40;;
57295;SDS011;43146;50.976;18.216;2023-01-23T06:39:06;133.50;;;35.80;;
57295;SDS011;43146;50.976;18.216;2023-01-23T06:41:32;129.90;;;28.20;;
57295;SDS011;43146;50.976;18.216;2023-01-23T06:43:58;102.40;;;26.40;;
57295;SDS011;43146;50.976;18.216;2023-01-23T06:46:23;99.20;;;24.10;;
57295;SDS011;43146;50.976;18.216;2023-01-23T06:48:50;71.30;;;25.30;;
57295;SDS011;43146;50.976;18.216;2023-01-23T06:51:16;74.40;;;21.30;;
57295;SDS011;43146;50.976;18.216;2023-01-23T06:53:42;120.60;;;32.60;;
57295;SDS011;43146;50.976;18.216;2023-01-23T06:56:08;120.80;;;31.70;;
57295;SDS011;43146;50.976;18.216;2023-01-23T06:58:34;68.70;;;20.00;;
57295;SDS011;43146;50.976;18.216;2023-01-23T07:01:06;107.30;;;30.10;;
57295;SDS011;43146;50.976;18.216;2023-01-23T07:03:33;56.50;;;19.00;;
57295;SDS011;43146;50.976;18.216;2023-01-23T07:06:02;150.80;;;42.10;;
57295;SDS011;43146;50.976;18.216;2023-01-23T07:08:32;126.30;;;32.70;;
57295;SDS011;43146;50.976;18.216;2023-01-23T07:10:58;139.30;;;36.70;;
57295;SDS011;43146;50.976;18.216;2023-01-23T07:13:24;92.90;;;27.70;;
57295;SDS011;43146;50.976;18.216;2023-01-23T07:15:50;91.30;;;27.50;;
57295;SDS011;43146;50.976;18.216;2023-01-23T07:18:15;65.90;;;23.80;;
57295;SDS011;43146;50.976;18.216;2023-01-23T07:20:44;61.90;;;16.80;;
57295;SDS011;43146;50.976;18.216;2023-01-23T07:23:10;42.90;;;13.40;;
57295;SDS011;43146;50.976;18.216;2023-01-23T07:25:36;68.40;;;20.60;;
57295;SDS011;43146;50.976;18.216;2023-01-23T07:28:02;92.40;;;27.20;;
57295;SDS011;43146;50.976;18.216;2023-01-23T07:30:28;68.70;;;23.40;;
57295;SDS011;43146;50.976;18.216;2023-01-23T07:32:54;97.50;;;30.90;;
57295;SDS011;43146;50.976;18.216;2023-01-23T07:35:20;144.20;;;37.00;;
57295;SDS011;43146;50.976;18.216;2023-01-23T07:37:46;76.80;;;26.90;;
57295;SDS011;43146;50.976;18.216;2023-01-23T07:40:12;64.20;;;15.80;;
57295;SDS011;43146;50.976;18.216;2023-01-23T07:42:38;122.60;;;34.10;;
57295;SDS011;43146;50.976;18.216;2023-01-23T07:45:06;90.10;;;26.80;;
57295;SDS011;43146;50.976;18.216;2023-01-23T07:47:34;149.40;;;38.10;;
57295;SDS011;43146;50.976;18.216;2023-01-23T07:50:00;66.70;;;22.50;;
57295;SDS011;43146;50.976;18.216;2023-01-23T07:52:26;151.10;;;40.50;;
57295;SDS011;43146;50.976;18.216;2023-01-23T07:54:52;107.80;;;27.90;;
57295;SDS011;43146;50.976;18.216;2023-01-23T07:57:18;104.50;;;27.30;;
57295;SDS011;43146;50.976;18.216;2023-01-23T07:59:43;90.10;;;23.30;;
57295;SDS011;43146;50.976;18.216;2023-01-23T08:02:09;55.40;;;13.90;;
57295;SDS011;43146;50.976;18.216;2023-01-23T08:04:35;86.00;;;23.40;;
57295;SDS011;43146;50.976;18.216;2023-01-23T08:07:02;65.50;;;19.60;;
57295;SDS011;43146;50.976;18.216;2023-01-23T08:09:28;68.20;;;20.70;;
57295;SDS011;43146;50.976;18.216;2023-01-23T08:11:54;86.90;;;20.80;;
57295;SDS011;43146;50.976;18.216;2023-01-23T08:14:20;153.60;;;38.70;;
57295;SDS011;43146;50.976;18.216;2023-01-23T08:16:48;147.50;;;32.70;;
57295;SDS011;43146;50.976;18.216;2023-01-23T08:19:15;116.10;;;29.70;;
57295;SDS011;43146;50.976;18.216;2023-01-23T08:21:41;150.00;;;39.60;;
57295;SDS011;43146;50.976;18.216;2023-01-23T08:24:08;133.90;;;35.40;;
57295;SDS011;43146;50.976;18.216;2023-01-23T08:26:35;166.90;;;37.90;;
57295;SDS011;43146;50.976;18.216;2023-01-23T08:29:00;162.20;;;36.00;;
57295;SDS011;43146;50.976;18.216;2023-01-23T08:31:26;165.30;;;36.90;;
57295;SDS011;43146;50.976;18.216;2023-01-23T08:33:52;159.60;;;38.60;;
57295;SDS011;43146;50.976;18.216;2023-01-23T08:36:18;156.60;;;38.40;;
57295;SDS011;43146;50.976;18.216;2023-01-23T08:38:44;147.00;;;39.40;;
57295;SDS011;43146;50.976;18.216;2023-01-23T08:41:09;124.50;;;32.80;;
57295;SDS011;43146;50.976;18.216;2023-01-23T08:43:39;161.30;;;40.30;;
57295;SDS011;43146;50.976;18.216;2023-01-23T08:46:06;133.50;;;39.30;;
57295;SDS011;43146;50.976;18.216;2023-01-23T08:48:32;130.90;;;34.30;;
57295;SDS011;43146;50.976;18.216;2023-01-23T08:51:01;120.50;;;30.60;;
57295;SDS011;43146;50.976;18.216;2023-01-23T08:53:28;176.00;;;50.40;;
57295;SDS011;43146;50.976;18.216;2023-01-23T08:55:58;125.90;;;36.60;;
57295;SDS011;43146;50.976;18.216;2023-01-23T08:58:27;195.70;;;55.30;;
57295;SDS011;43146;50.976;18.216;2023-01-23T09:00:53;187.90;;;53.30;;
57295;SDS011;43146;50.976;18.216;2023-01-23T09:03:19;218.60;;;53.50;;
57295;SDS011;43146;50.976;18.216;2023-01-23T09:05:45;99.60;;;30.70;;
57295;SDS011;43146;50.976;18.216;2023-01-23T09:08:10;150.10;;;39.70;;
57295;SDS011;43146;50.976;18.216;2023-01-23T09:10:36;158.00;;;52.10;;
57295;SDS011;43146;50.976;18.216;2023-01-23T09:13:02;142.20;;;38.60;;
57295;SDS011;43146;50.976;18.216;2023-01-23T09:15:28;168.00;;;42.30;;
57295;SDS011;43146;50.976;18.216;2023-01-23T09:17:54;135.30;;;42.60;;
57295;SDS011;43146;50.976;18.216;2023-01-23T09:20:20;141.00;;;40.50;;
57295;SDS011;43146;50.976;18.216;2023-01-23T09:22:45;129.60;;;34.80;;
57295;SDS011;43146;50.976;18.216;2023-01-23T09:25:11;153.20;;;47.90;;
57295;SDS011;43146;50.976;18.216;2023-01-23T09:27:38;176.80;;;49.80;;
57295;SDS011;43146;50.976;18.216;2023-01-23T09:30:05;152.80;;;45.70;;
57295;SDS011;43146;50.976;18.216;2023-01-23T09:32:31;181.10;;;48.80;;
57295;SDS011;43146;50.976;18.216;2023-01-23T09:34:57;168.30;;;43.40;;
57295;SDS011;43146;50.976;18.216;2023-01-23T09:37:23;149.70;;;38.90;;
57295;SDS011;43146;50.976;18.216;2023-01-23T09:39:48;153.20;;;45.70;;
57295;SDS011;43146;50.976;18.216;2023-01-23T09:42:16;193.20;;;46.30;;
57295;SDS011;43146;50.976;18.216;2023-01-23T09:44:47;174.90;;;45.90;;
57295;SDS011;43146;50.976;18.216;2023-01-23T09:47:25;104.90;;;30.70;;
57295;SDS011;43146;50.976;18.216;2023-01-23T09:49:57;163.20;;;46.70;;
57295;SDS011;43146;50.976;18.216;2023-01-23T09:52:27;105.60;;;30.70;;
57295;SDS011;43146;50.976;18.216;2023-01-23T09:55:01;140.50;;;39.40;;
57295;SDS011;43146;50.976;18.216;2023-01-23T09:57:41;146.60;;;40.90;;
57295;SDS011;43146;50.976;18.216;2023-01-23T10:00:24;130.30;;;42.20;;
57295;SDS011;43146;50.976;18.216;2023-01-23T10:02:52;132.40;;;38.00;;
57295;SDS011;43146;50.976;18.216;2023-01-23T10:05:20;117.30;;;36.00;;
57295;SDS011;43146;50.976;18.216;2023-01-23T10:13:15;89.50;;;30.20;;
57295;SDS011;43146;50.976;18.216;2023-01-23T10:16:04;107.10;;;35.70;;
57295;SDS011;43146;50.976;18.216;2023-01-23T10:26:14;128.50;;;42.60;;
57295;SDS011;43146;50.976;18.216;2023-01-23T10:28:43;86.70;;;27.40;;
57295;SDS011;43146;50.976;18.216;2023-01-23T10:33:58;93.90;;;30.60;;
57295;SDS011;43146;50.976;18.216;2023-01-23T10:36:30;128.90;;;41.00;;
57295;SDS011;43146;50.976;18.216;2023-01-23T10:39:19;109.70;;;34.30;;
57295;SDS011;43146;50.976;18.216;2023-01-23T10:41:49;102.80;;;32.20;;
57295;SDS011;43146;50.976;18.216;2023-01-23T10:44:16;55.70;;;19.80;;
57295;SDS011;43146;50.976;18.216;2023-01-23T10:46:47;106.20;;;39.00;;
57295;SDS011;43146;50.976;18.216;2023-01-23T10:49:28;111.90;;;37.50;;
57295;SDS011;43146;50.976;18.216;2023-01-23T10:51:57;136.10;;;42.10;;
57295;SDS011;43146;50.976;18.216;2023-01-23T10:54:23;110.20;;;31.40;;
57295;SDS011;43146;50.976;18.216;2023-01-23T10:56:51;130.00;;;45.00;;
57295;SDS011;43146;50.976;18.216;2023-01-23T11:01:54;118.30;;;36.10;;
57295;SDS011;43146;50.976;18.216;2023-01-23T11:04:23;132.30;;;44.50;;
57295;SDS011;43146;50.976;18.216;2023-01-23T11:09:30;124.80;;;38.60;;
57295;SDS011;43146;50.976;18.216;2023-01-23T11:12:03;127.20;;;41.00;;
57295;SDS011;43146;50.976;18.216;2023-01-23T11:14:29;140.30;;;40.50;;
57295;SDS011;43146;50.976;18.216;2023-01-23T11:19:44;128.50;;;46.70;;
57295;SDS011;43146;50.976;18.216;2023-01-23T11:25:16;118.10;;;38.00;;
57295;SDS011;43146;50.976;18.216;2023-01-23T11:27:55;122.60;;;39.30;;
57295;SDS011;43146;50.976;18.216;2023-01-23T11:30:30;125.40;;;39.30;;
57295;SDS011;43146;50.976;18.216;2023-01-23T11:38:34;118.30;;;41.40;;
57295;SDS011;43146;50.976;18.216;2023-01-23T11:41:02;134.20;;;45.30;;
57295;SDS011;43146;50.976;18.216;2023-01-23T11:43:29;96.70;;;33.90;;
57295;SDS011;43146;50.976;18.216;2023-01-23T11:49:10;150.80;;;51.80;;
57295;SDS011;43146;50.976;18.216;2023-01-23T12:07:53;141.50;;;49.20;;
57295;SDS011;43146;50.976;18.216;2023-01-23T12:10:25;109.40;;;41.70;;
57295;SDS011;43146;50.976;18.216;2023-01-23T12:13:09;129.70;;;44.20;;
57295;SDS011;43146;50.976;18.216;2023-01-23T12:15:43;102.60;;;35.70;;
57295;SDS011;43146;50.976;18.216;2023-01-23T12:18:38;135.90;;;48.60;;
57295;SDS011;43146;50.976;18.216;2023-01-23T12:21:54;115.70;;;38.60;;
57295;SDS011;43146;50.976;18.216;2023-01-23T12:43:10;124.00;;;40.40;;
57295;SDS011;43146;50.976;18.216;2023-01-23T12:45:40;111.70;;;40.40;;
57295;SDS011;43146;50.976;18.216;2023-01-23T12:48:21;169.50;;;62.80;;
57295;SDS011;43146;50.976;18.216;2023-01-23T12:50:55;90.10;;;27.40;;
57295;SDS011;43146;50.976;18.216;2023-01-23T12:53:34;77.80;;;25.00;;
57295;SDS011;43146;50.976;18.216;2023-01-23T12:56:09;132.90;;;44.30;;
57295;SDS011;43146;50.976;18.216;2023-01-23T12:58:41;118.70;;;43.00;;
57295;SDS011;43146;50.976;18.216;2023-01-23T13:04:07;116.30;;;41.90;;
57295;SDS011;43146;50.976;18.216;2023-01-23T13:12:21;111.00;;;36.80;;
57295;SDS011;43146;50.976;18.216;2023-01-23T13:14:51;83.30;;;29.90;;
57295;SDS011;43146;50.976;18.216;2023-01-23T13:17:35;71.40;;;24.70;;
57295;SDS011;43146;50.976;18.216;2023-01-23T13:29:34;60.50;;;22.50;;
57295;SDS011;43146;50.976;18.216;2023-01-23T13:36:51;99.90;;;36.00;;
57295;SDS011;43146;50.976;18.216;2023-01-23T13:39:20;68.80;;;26.60;;
57295;SDS011;43146;50.976;18.216;2023-01-23T13:41:50;105.50;;;37.90;;
57295;SDS011;43146;50.976;18.216;2023-01-23T13:44:37;84.30;;;29.80;;
57295;SDS011;43146;50.976;18.216;2023-01-23T13:47:53;101.40;;;37.10;;
57295;SDS011;43146;50.976;18.216;2023-01-23T13:51:19;116.10;;;38.00;;
57295;SDS011;43146;50.976;18.216;2023-01-23T13:53:47;86.90;;;27.10;;
57295;SDS011;43146;50.976;18.216;2023-01-23T13:56:32;90.80;;;28.80;;
57295;SDS011;43146;50.976;18.216;2023-01-23T13:59:15;106.70;;;36.80;;
57295;SDS011;43146;50.976;18.216;2023-01-23T14:01:55;62.90;;;19.20;;
57295;SDS011;43146;50.976;18.216;2023-01-23T14:04:49;74.40;;;25.30;;
57295;SDS011;43146;50.976;18.216;2023-01-23T14:07:38;65.90;;;18.40;;
57295;SDS011;43146;50.976;18.216;2023-01-23T14:10:19;104.70;;;37.70;;
57295;SDS011;43146;50.976;18.216;2023-01-23T14:13:09;56.00;;;19.00;;
57295;SDS011;43146;50.976;18.216;2023-01-23T14:15:40;67.90;;;26.10;;
57295;SDS011;43146;50.976;18.216;2023-01-23T14:23:51;58.60;;;20.70;;
57295;SDS011;43146;50.976;18.216;2023-01-23T14:26:22;87.80;;;32.10;;
57295;SDS011;43146;50.976;18.216;2023-01-23T14:28:59;136.50;;;49.40;;
57295;SDS011;43146;50.976;18.216;2023-01-23T14:31:28;131.40;;;49.40;;
57295;SDS011;43146;50.976;18.216;2023-01-23T14:34:01;139.00;;;51.90;;
57295;SDS011;43146;50.976;18.216;2023-01-23T14:36:31;125.00;;;45.70;;
57295;SDS011;43146;50.976;18.216;2023-01-23T14:38:59;164.70;;;57.10;;
57295;SDS011;43146;50.976;18.216;2023-01-23T14:41:27;161.70;;;55.30;;
57295;SDS011;43146;50.976;18.216;2023-01-23T14:43:56;74.20;;;22.20;;
57295;SDS011;43146;50.976;18.216;2023-01-23T14:49:01;170.00;;;56.50;;
57295;SDS011;43146;50.976;18.216;2023-01-23T14:51:28;116.50;;;41.30;;
57295;SDS011;43146;50.976;18.216;2023-01-23T14:59:02;105.70;;;35.40;;
57295;SDS011;43146;50.976;18.216;2023-01-23T15:01:30;112.20;;;42.40;;
57295;SDS011;43146;50.976;18.216;2023-01-23T15:04:03;75.40;;;27.70;;
57295;SDS011;43146;50.976;18.216;2023-01-23T15:06:31;85.90;;;26.10;;
57295;SDS011;43146;50.976;18.216;2023-01-23T15:09:12;111.80;;;44.80;;
57295;SDS011;43146;50.976;18.216;2023-01-23T15:11:39;87.40;;;30.80;;
57295;SDS011;43146;50.976;18.216;2023-01-23T15:14:19;102.30;;;35.20;;
57295;SDS011;43146;50.976;18.216;2023-01-23T15:16:49;84.10;;;23.30;;
57295;SDS011;43146;50.976;18.216;2023-01-23T15:19:18;73.60;;;24.10;;
57295;SDS011;43146;50.976;18.216;2023-01-23T15:21:47;55.70;;;21.20;;
57295;SDS011;43146;50.976;18.216;2023-01-23T15:26:39;55.10;;;17.50;;
57295;SDS011;43146;50.976;18.216;2023-01-23T15:31:40;57.80;;;19.70;;
57295;SDS011;43146;50.976;18.216;2023-01-23T15:39:31;92.50;;;32.00;;
57295;SDS011;43146;50.976;18.216;2023-01-23T15:44:36;92.60;;;34.20;;
57295;SDS011;43146;50.976;18.216;2023-01-23T15:47:02;108.60;;;40.90;;
57295;SDS011;43146;50.976;18.216;2023-01-23T15:49:32;73.40;;;29.60;;
57295;SDS011;43146;50.976;18.216;2023-01-23T15:52:00;115.90;;;47.60;;
57295;SDS011;43146;50.976;18.216;2023-01-23T15:54:47;109.60;;;44.70;;
57295;SDS011;43146;50.976;18.216;2023-01-23T15:57:16;76.10;;;31.00;;
57295;SDS011;43146;50.976;18.216;2023-01-23T15:59:41;80.30;;;31.70;;
57295;SDS011;43146;50.976;18.216;2023-01-23T16:02:09;130.10;;;49.20;;
57295;SDS011;43146;50.976;18.216;2023-01-23T16:04:42;147.80;;;52.70;;
57295;SDS011;43146;50.976;18.216;2023-01-23T16:07:31;118.70;;;52.70;;
57295;SDS011;43146;50.976;18.216;2023-01-23T16:10:18;93.30;;;32.30;;
57295;SDS011;43146;50.976;18.216;2023-01-23T16:12:46;98.30;;;40.50;;
57295;SDS011;43146;50.976;18.216;2023-01-23T16:17:58;142.50;;;54.40;;
57295;SDS011;43146;50.976;18.216;2023-01-23T16:20:28;140.30;;;60.90;;
57295;SDS011;43146;50.976;18.216;2023-01-23T16:22:58;130.10;;;51.00;;